Main page
METAR-TAF:

METAR-TAF

Airports :

Córdoba Airport

Córdoba, Spain

latitude: 37-51N, longitude: 004-51W, elevation: 90 m

Current weather observation

The report was made 16 minutes ago, at 01:30 UTC
Wind 5 kt from the West
Temperature 22°C
Humidity 65%
Pressure 1017 hPa
Visibility 10 km or more

METAR: LEBA 220130Z AUTO 26005KT 9999 NCD 22/15 Q1017

Time: 03:46 (01:46 UTC)

Forecast

The report was made 8 hours and 46 minutes ago, at 17:00 UTC
Forecast valid from 21 at 18 UTC to 22 at 03 UTC
Wind 8 kt from the Southwest
Visibility 10 km or more
no clouds below 1500 m and no cumulonimbus

TAF: LEBA 211700Z 2118/2203 22008KT CAVOK

Weather observations and forecasts of more than 4000 airports (METAR and TAF reports).

The available stations are represented by yellow and red dots on the map.

Hover mouse over dot to see the name of the station.

Then click to see weather observations and forecasts.

To change the map : click on the green buttons with a black cross to zoom in, on the green button with a dash to zoom out, or on the green arrows for adjacent maps.


METAR-TAF: